createdAt,value
2023-05-09T00:00:08.491Z,15.03
2023-05-09T00:02:36.228Z,15.19
2023-05-09T00:05:04.188Z,15.25
2023-05-09T00:07:32.172Z,15.31
2023-05-09T00:09:59.632Z,15.39
2023-05-09T00:12:27.496Z,15.44
2023-05-09T00:14:56.733Z,15.40
2023-05-09T00:17:24.516Z,15.43
2023-05-09T00:19:52.929Z,15.32
2023-05-09T00:22:22.236Z,15.35
2023-05-09T00:24:49.764Z,15.27
2023-05-09T00:27:17.797Z,15.30
2023-05-09T00:29:45.487Z,15.35
2023-05-09T00:32:14.738Z,15.36
2023-05-09T00:34:42.369Z,15.35
2023-05-09T00:37:09.830Z,15.28
2023-05-09T00:39:37.283Z,15.20
2023-05-09T00:42:04.932Z,15.26
2023-05-09T00:44:32.422Z,15.23
2023-05-09T00:46:59.928Z,15.22
2023-05-09T00:49:28.801Z,15.04
2023-05-09T00:51:56.806Z,15.05
2023-05-09T00:54:24.304Z,15.23
2023-05-09T00:56:52.379Z,15.11
2023-05-09T00:59:19.856Z,15.31
2023-05-09T01:01:48.525Z,15.23
2023-05-09T01:04:16.497Z,15.21
2023-05-09T01:06:54.298Z,15.13
2023-05-09T01:09:26.072Z,15.17
2023-05-09T01:12:03.522Z,15.36
2023-05-09T01:14:39.476Z,15.20
2023-05-09T01:17:13.853Z,15.35
2023-05-09T01:20:10.643Z,15.32
2023-05-09T01:22:44.545Z,15.32
2023-05-09T01:25:39.388Z,15.52
2023-05-09T01:28:17.778Z,15.30
2023-05-09T01:30:48.425Z,15.22
2023-05-09T01:33:20.045Z,15.08
2023-05-09T01:35:53.149Z,15.02
2023-05-09T01:38:24.841Z,15.22
2023-05-09T01:40:55.845Z,15.25
2023-05-09T01:43:26.653Z,14.64
2023-05-09T01:45:56.800Z,14.50
2023-05-09T01:48:26.299Z,14.58
2023-05-09T01:50:55.753Z,14.47
2023-05-09T01:53:25.733Z,14.43
2023-05-09T01:55:54.108Z,14.48
2023-05-09T01:58:23.023Z,14.54
2023-05-09T02:00:51.853Z,14.85
2023-05-09T02:03:21.921Z,14.84
2023-05-09T02:05:51.022Z,14.91
2023-05-09T02:08:21.649Z,14.91
2023-05-09T02:10:50.063Z,15.05
2023-05-09T02:13:17.995Z,14.98
2023-05-09T02:15:46.293Z,14.97
2023-05-09T02:18:13.840Z,15.06
2023-05-09T02:20:42.677Z,15.13
2023-05-09T02:23:10.159Z,15.16
2023-05-09T02:25:38.686Z,15.10
2023-05-09T02:28:07.105Z,15.11
2023-05-09T02:30:37.954Z,15.20
2023-05-09T02:33:08.018Z,15.23
2023-05-09T02:35:37.176Z,15.14
2023-05-09T02:38:06.347Z,14.68
2023-05-09T02:40:35.018Z,14.34
2023-05-09T02:43:02.898Z,14.58
2023-05-09T02:45:30.550Z,14.84
2023-05-09T02:47:58.038Z,14.89
2023-05-09T02:50:25.574Z,15.02
2023-05-09T02:52:53.026Z,14.91
2023-05-09T02:55:21.827Z,14.54
2023-05-09T02:57:51.985Z,14.16
2023-05-09T03:00:25.678Z,14.26
2023-05-09T03:02:53.351Z,14.23
2023-05-09T03:05:21.135Z,14.27
2023-05-09T03:07:48.946Z,14.07
2023-05-09T03:10:16.655Z,13.91
2023-05-09T03:12:45.559Z,13.54
2023-05-09T03:15:13.516Z,13.84
2023-05-09T03:17:41.302Z,13.90
2023-05-09T03:20:10.267Z,13.64
2023-05-09T03:22:37.784Z,13.41
2023-05-09T03:25:06.371Z,13.54
2023-05-09T03:27:33.923Z,13.61
2023-05-09T03:30:02.844Z,13.38
2023-05-09T03:32:30.502Z,13.54
2023-05-09T03:34:58.196Z,13.62
2023-05-09T03:37:27.095Z,13.30
2023-05-09T03:39:54.831Z,13.37
2023-05-09T03:42:22.857Z,13.45
2023-05-09T03:44:50.334Z,13.31
2023-05-09T03:47:19.131Z,13.57
2023-05-09T03:49:46.729Z,13.78
2023-05-09T03:52:14.268Z,14.05
2023-05-09T03:54:41.755Z,13.74
2023-05-09T03:57:09.204Z,13.80
2023-05-09T03:59:36.669Z,14.20
2023-05-09T04:02:04.154Z,14.55
2023-05-09T04:04:32.984Z,14.98
2023-05-09T04:07:00.442Z,15.42
2023-05-09T04:09:28.780Z,15.76
2023-05-09T04:11:56.230Z,16.25
2023-05-09T04:14:23.703Z,16.85
2023-05-09T04:16:51.180Z,17.44
2023-05-09T04:19:18.646Z,18.09
2023-05-09T04:21:47.431Z,18.65
2023-05-09T04:24:15.133Z,19.03
2023-05-09T04:26:42.729Z,19.26
2023-05-09T04:29:10.432Z,19.36
2023-05-09T04:31:37.972Z,18.88
2023-05-09T04:34:05.681Z,18.23
2023-05-09T04:36:33.848Z,17.67
2023-05-09T04:39:02.726Z,17.46
2023-05-09T04:41:30.902Z,17.33
2023-05-09T04:43:58.376Z,16.75
2023-05-09T04:46:26.099Z,16.98
2023-05-09T04:48:53.733Z,17.06
2023-05-09T04:51:21.299Z,17.30
2023-05-09T04:53:48.753Z,17.70
2023-05-09T04:56:17.538Z,18.50
2023-05-09T04:58:44.985Z,19.10
2023-05-09T05:01:12.583Z,19.00
2023-05-09T05:03:40.063Z,18.19
2023-05-09T05:06:07.844Z,17.67
2023-05-09T05:08:35.293Z,17.37
2023-05-09T05:11:02.773Z,17.07
2023-05-09T05:13:31.554Z,16.99
2023-05-09T05:15:59.388Z,16.83
2023-05-09T05:18:26.934Z,16.37
2023-05-09T05:20:54.381Z,16.25
2023-05-09T05:23:21.994Z,15.81
2023-05-09T05:25:49.630Z,15.97
2023-05-09T05:28:17.100Z,16.16
2023-05-09T05:30:45.915Z,16.24
2023-05-09T05:33:13.374Z,16.10
2023-05-09T05:35:40.939Z,16.54
2023-05-09T05:38:08.403Z,16.92
2023-05-09T05:40:35.853Z,17.06
2023-05-09T05:43:03.336Z,17.11
2023-05-09T05:45:31.263Z,17.09
2023-05-09T05:48:00.964Z,16.65
2023-05-09T05:50:28.474Z,16.65
2023-05-09T05:52:55.930Z,15.86
2023-05-09T05:55:23.420Z,15.89
2023-05-09T05:57:50.891Z,15.91
2023-05-09T06:00:18.791Z,15.59
2023-05-09T06:02:47.709Z,15.50
2023-05-09T06:05:16.991Z,15.77
2023-05-09T06:07:45.546Z,16.09
2023-05-09T06:10:13.103Z,16.27
2023-05-09T06:12:40.557Z,16.67
2023-05-09T06:15:08.872Z,16.32
2023-05-09T06:17:36.512Z,16.83
2023-05-09T06:20:04.498Z,17.50
2023-05-09T06:22:33.305Z,18.23
2023-05-09T06:25:00.750Z,19.12
2023-05-09T06:27:28.224Z,19.55
2023-05-09T06:29:55.716Z,20.19
2023-05-09T06:32:24.890Z,21.43
2023-05-09T06:34:52.637Z,22.89
2023-05-09T06:37:20.163Z,23.14
2023-05-09T06:39:50.265Z,24.82
2023-05-09T06:42:17.744Z,27.22
2023-05-09T06:44:45.272Z,26.72
2023-05-09T06:47:12.798Z,27.65
2023-05-09T06:49:40.293Z,27.97
2023-05-09T06:52:07.739Z,26.84
2023-05-09T06:54:35.190Z,26.28
2023-05-09T06:57:03.977Z,27.33
2023-05-09T06:59:31.466Z,27.43
2023-05-09T07:01:59.018Z,27.11
2023-05-09T07:04:26.611Z,25.66
2023-05-09T07:06:54.127Z,24.19
2023-05-09T07:09:21.838Z,23.43
2023-05-09T07:11:49.291Z,23.15
2023-05-09T07:14:18.086Z,22.63
2023-05-09T07:16:46.394Z,23.17
2023-05-09T07:19:13.951Z,24.10
2023-05-09T07:21:41.414Z,25.11
2023-05-09T07:24:08.950Z,25.67
2023-05-09T07:26:36.457Z,25.51
2023-05-09T07:29:03.981Z,24.78
2023-05-09T07:31:35.139Z,24.56
2023-05-09T07:34:04.201Z,23.92
2023-05-09T07:36:33.179Z,23.89
2023-05-09T07:39:01.655Z,23.58
2023-05-09T07:41:29.120Z,23.94
2023-05-09T07:43:56.555Z,24.26
2023-05-09T07:46:24.082Z,24.77
2023-05-09T07:48:52.882Z,24.92
2023-05-09T07:51:20.346Z,24.27
2023-05-09T07:53:47.814Z,25.12
2023-05-09T07:56:15.273Z,26.04
2023-05-09T07:58:42.721Z,24.72
2023-05-09T08:01:10.214Z,24.13
2023-05-09T08:03:37.768Z,24.64
2023-05-09T08:06:06.702Z,24.68
2023-05-09T08:08:34.567Z,25.32
2023-05-09T08:11:02.081Z,25.89
2023-05-09T08:13:29.556Z,25.82
2023-05-09T08:15:57.891Z,26.08
2023-05-09T08:18:25.389Z,25.48
2023-05-09T08:20:52.849Z,24.33
2023-05-09T08:23:21.637Z,24.45
2023-05-09T08:25:49.122Z,24.75
2023-05-09T08:28:16.728Z,24.52
2023-05-09T08:30:44.170Z,24.31
2023-05-09T08:33:11.702Z,23.65
2023-05-09T08:35:39.178Z,24.06
2023-05-09T08:38:06.619Z,24.36
2023-05-09T08:40:38.223Z,24.33
2023-05-09T08:43:07.585Z,24.40
2023-05-09T08:45:39.395Z,24.22
2023-05-09T08:48:07.907Z,24.49
2023-05-09T08:50:35.866Z,24.34
2023-05-09T08:53:03.646Z,24.26
2023-05-09T08:55:31.332Z,24.14
2023-05-09T08:58:00.615Z,24.34
2023-05-09T09:00:28.896Z,25.17
2023-05-09T09:02:58.021Z,24.89
2023-05-09T09:05:40.645Z,24.74
2023-05-09T09:08:09.830Z,25.30
2023-05-09T09:10:41.473Z,25.24
2023-05-09T09:13:12.917Z,24.88
2023-05-09T09:15:43.997Z,24.89
2023-05-09T09:18:13.478Z,25.07
2023-05-09T09:20:45.950Z,24.23
2023-05-09T09:23:17.453Z,23.83
2023-05-09T09:25:47.037Z,23.98
2023-05-09T09:28:16.131Z,24.39
2023-05-09T09:30:48.298Z,24.49
2023-05-09T09:33:22.482Z,24.62
2023-05-09T09:35:51.411Z,24.74
2023-05-09T09:38:20.018Z,24.42
2023-05-09T09:40:53.806Z,24.63
2023-05-09T09:43:28.371Z,24.39
2023-05-09T09:45:57.018Z,24.02
2023-05-09T09:48:25.531Z,23.22
2023-05-09T09:50:55.113Z,23.07
2023-05-09T09:53:23.787Z,22.98
2023-05-09T09:55:53.235Z,22.88
2023-05-09T09:58:24.695Z,23.04
2023-05-09T10:01:07.084Z,22.78
2023-05-09T10:03:39.385Z,23.76
2023-05-09T10:06:10.829Z,23.87
2023-05-09T10:08:38.348Z,24.58
2023-05-09T10:11:06.040Z,24.37
2023-05-09T10:13:37.302Z,24.55
2023-05-09T10:16:06.380Z,24.27
2023-05-09T10:18:34.580Z,24.07
2023-05-09T10:21:05.103Z,24.71
2023-05-09T10:23:35.732Z,24.92
2023-05-09T10:26:10.694Z,25.48
2023-05-09T10:28:41.405Z,25.55
2023-05-09T10:31:13.711Z,25.86
2023-05-09T10:33:47.737Z,25.42
2023-05-09T10:36:18.795Z,25.85
2023-05-09T10:38:47.534Z,25.39
2023-05-09T10:41:16.727Z,25.08
2023-05-09T10:43:46.447Z,24.68
2023-05-09T10:46:14.455Z,24.88
2023-05-09T10:48:43.080Z,25.69
2023-05-09T10:51:10.870Z,25.99
2023-05-09T10:53:43.577Z,24.85
2023-05-09T10:56:23.508Z,24.84
2023-05-09T10:58:52.500Z,25.15
2023-05-09T11:01:30.434Z,25.06
2023-05-09T11:03:59.960Z,25.25
2023-05-09T11:06:49.221Z,25.22
2023-05-09T11:09:28.320Z,25.65
2023-05-09T11:11:57.813Z,26.37
2023-05-09T11:14:34.293Z,26.04
2023-05-09T11:17:04.102Z,25.97
2023-05-09T11:19:36.890Z,26.32
2023-05-09T11:22:13.700Z,26.76
2023-05-09T11:24:45.323Z,26.52
2023-05-09T11:27:17.081Z,26.57
2023-05-09T11:29:47.309Z,26.26
2023-05-09T11:32:16.412Z,26.35
2023-05-09T11:34:45.638Z,26.04
2023-05-09T11:37:14.394Z,25.73
2023-05-09T11:39:59.076Z,25.68
2023-05-09T11:42:29.021Z,25.67
2023-05-09T11:44:59.384Z,25.79
2023-05-09T11:47:28.827Z,25.66
2023-05-09T11:49:56.520Z,25.21
2023-05-09T11:52:23.974Z,25.38
2023-05-09T11:54:51.444Z,25.54
2023-05-09T11:57:18.984Z,25.39
2023-05-09T11:59:46.709Z,25.41
2023-05-09T12:02:15.561Z,24.93
2023-05-09T12:04:44.080Z,25.03
2023-05-09T12:07:12.960Z,25.53
2023-05-09T12:09:40.589Z,25.94
2023-05-09T12:12:11.853Z,26.06
2023-05-09T12:14:40.253Z,25.94
2023-05-09T12:17:08.091Z,26.23
2023-05-09T12:19:37.681Z,26.37
2023-05-09T12:22:06.719Z,25.99
2023-05-09T12:24:36.687Z,26.45
2023-05-09T12:27:04.802Z,26.82
2023-05-09T12:29:32.596Z,26.82
2023-05-09T12:32:01.002Z,27.39
2023-05-09T12:34:28.755Z,27.89
2023-05-09T12:36:59.933Z,26.75
2023-05-09T12:39:27.454Z,26.01
2023-05-09T12:42:01.467Z,25.68
2023-05-09T12:44:30.241Z,25.12
2023-05-09T12:46:59.253Z,25.48
2023-05-09T12:49:27.690Z,26.12
2023-05-09T12:51:58.350Z,25.83
2023-05-09T12:54:26.869Z,25.06
2023-05-09T12:56:56.846Z,25.42
2023-05-09T12:59:26.088Z,26.00
2023-05-09T13:01:55.505Z,26.32
2023-05-09T13:04:23.701Z,26.29
2023-05-09T13:06:52.121Z,26.16
2023-05-09T13:09:20.981Z,26.53
2023-05-09T13:11:48.609Z,27.16
2023-05-09T13:14:16.275Z,27.00
2023-05-09T13:16:44.824Z,27.21
2023-05-09T13:19:12.399Z,26.98
2023-05-09T13:21:40.345Z,26.91
2023-05-09T13:24:08.192Z,27.15
2023-05-09T13:26:37.022Z,27.80
2023-05-09T13:29:04.613Z,27.46
2023-05-09T13:31:32.523Z,27.20
2023-05-09T13:33:59.995Z,27.39
2023-05-09T13:36:27.478Z,27.93
2023-05-09T13:38:54.966Z,27.85
2023-05-09T13:41:23.797Z,27.68
2023-05-09T13:43:52.704Z,27.17
2023-05-09T13:46:20.175Z,27.17
2023-05-09T13:48:48.518Z,26.09
2023-05-09T13:51:16.026Z,25.83
2023-05-09T13:53:43.556Z,25.56
2023-05-09T13:56:11.041Z,25.41
2023-05-09T13:58:38.576Z,25.62
2023-05-09T14:01:07.683Z,26.29
2023-05-09T14:03:35.331Z,25.87
2023-05-09T14:06:03.579Z,25.51
2023-05-09T14:08:31.055Z,25.63
2023-05-09T14:10:58.514Z,25.66
2023-05-09T14:13:26.092Z,25.33
2023-05-09T14:15:53.637Z,25.36
2023-05-09T14:18:22.443Z,25.93
2023-05-09T14:20:50.107Z,25.67
2023-05-09T14:23:17.596Z,26.12
2023-05-09T14:25:45.195Z,26.22
2023-05-09T14:28:12.814Z,25.84
2023-05-09T14:30:40.271Z,25.89
2023-05-09T14:33:07.945Z,26.66
2023-05-09T14:35:38.413Z,25.87
2023-05-09T14:38:07.390Z,25.13
2023-05-09T14:40:34.890Z,24.76
2023-05-09T14:43:02.884Z,24.57
2023-05-09T14:45:30.517Z,25.03
2023-05-09T14:47:58.273Z,25.63
2023-05-09T14:50:25.828Z,25.62
2023-05-09T14:52:54.683Z,25.31
2023-05-09T14:55:23.008Z,25.22
2023-05-09T14:57:50.777Z,25.55
2023-05-09T15:00:21.938Z,25.84
2023-05-09T15:02:50.306Z,24.88
2023-05-09T15:05:18.142Z,24.48
2023-05-09T15:07:45.604Z,24.75
2023-05-09T15:10:14.727Z,24.25
2023-05-09T15:12:42.530Z,24.58
2023-05-09T15:15:14.718Z,24.03
2023-05-09T15:17:44.017Z,23.74
2023-05-09T15:20:13.353Z,23.48
2023-05-09T15:22:40.984Z,23.59
2023-05-09T15:25:09.253Z,23.66
2023-05-09T15:27:38.433Z,23.74
2023-05-09T15:30:07.003Z,23.49
2023-05-09T15:32:35.887Z,23.26
2023-05-09T15:35:03.439Z,23.57
2023-05-09T15:37:30.901Z,23.26
2023-05-09T15:39:58.341Z,23.41
2023-05-09T15:42:26.161Z,23.87
2023-05-09T15:44:55.174Z,24.36
2023-05-09T15:47:22.653Z,24.28
2023-05-09T15:49:50.199Z,23.91
2023-05-09T15:52:18.072Z,23.64
2023-05-09T15:54:45.969Z,23.75
2023-05-09T15:57:13.558Z,23.74
2023-05-09T15:59:41.178Z,23.59
2023-05-09T16:02:10.704Z,23.58
2023-05-09T16:04:38.440Z,23.96
2023-05-09T16:07:05.938Z,23.69
2023-05-09T16:09:33.776Z,23.75
2023-05-09T16:12:01.683Z,23.90
2023-05-09T16:14:29.206Z,23.66
2023-05-09T16:16:56.726Z,23.70
2023-05-09T16:19:25.501Z,23.41
2023-05-09T16:21:53.219Z,23.46
2023-05-09T16:24:20.673Z,23.57
2023-05-09T16:26:48.250Z,23.20
2023-05-09T16:29:15.723Z,23.04
2023-05-09T16:31:44.904Z,23.29
2023-05-09T16:34:12.481Z,22.98
2023-05-09T16:36:41.342Z,23.02
2023-05-09T16:39:08.807Z,22.62
2023-05-09T16:41:36.271Z,22.64
2023-05-09T16:44:03.754Z,22.70
2023-05-09T16:46:31.220Z,22.80
2023-05-09T16:48:58.719Z,22.87
2023-05-09T16:51:26.289Z,22.74
2023-05-09T16:53:55.238Z,22.78
2023-05-09T16:56:23.313Z,22.98
2023-05-09T16:58:51.619Z,22.99
2023-05-09T17:01:19.164Z,23.25
2023-05-09T17:03:48.022Z,23.10
2023-05-09T17:06:15.530Z,22.76
2023-05-09T17:08:43.239Z,22.73
2023-05-09T17:11:12.382Z,22.44
2023-05-09T17:13:39.994Z,22.55
2023-05-09T17:16:07.737Z,22.16
2023-05-09T17:18:37.982Z,21.84
2023-05-09T17:21:06.542Z,21.65
2023-05-09T17:23:34.021Z,21.64
2023-05-09T17:26:01.477Z,21.45
2023-05-09T17:28:30.422Z,21.49
2023-05-09T17:30:59.089Z,21.54
2023-05-09T17:33:26.764Z,21.73
2023-05-09T17:35:54.559Z,21.15
2023-05-09T17:38:22.073Z,21.00
2023-05-09T17:40:49.965Z,20.92
2023-05-09T17:43:17.435Z,20.85
2023-05-09T17:45:46.673Z,20.92
2023-05-09T17:48:14.528Z,21.13
2023-05-09T17:50:42.092Z,21.26
2023-05-09T17:53:09.868Z,21.51
2023-05-09T17:55:37.443Z,21.59
2023-05-09T17:58:04.911Z,21.53
2023-05-09T18:00:33.387Z,21.54
2023-05-09T18:03:04.003Z,21.40
2023-05-09T18:05:31.645Z,21.36
2023-05-09T18:08:01.032Z,21.16
2023-05-09T18:10:28.951Z,21.03
2023-05-09T18:12:56.657Z,20.92
2023-05-09T18:15:26.079Z,20.52
2023-05-09T18:17:54.623Z,20.47
2023-05-09T18:20:23.581Z,19.93
2023-05-09T18:22:51.046Z,20.07
2023-05-09T18:25:18.573Z,19.83
2023-05-09T18:27:46.049Z,19.92
2023-05-09T18:30:14.606Z,19.88
2023-05-09T18:32:42.265Z,19.83
2023-05-09T18:35:10.348Z,19.57
2023-05-09T18:37:39.402Z,19.50
2023-05-09T18:40:10.609Z,19.40
2023-05-09T18:42:38.263Z,19.11
2023-05-09T18:45:07.110Z,19.15
2023-05-09T18:47:34.605Z,18.94
2023-05-09T18:50:03.922Z,18.88
2023-05-09T18:52:32.345Z,18.78
2023-05-09T18:55:01.251Z,18.48
2023-05-09T18:57:29.172Z,18.51
2023-05-09T18:59:56.666Z,18.28
2023-05-09T19:02:24.364Z,18.30
2023-05-09T19:04:52.374Z,18.20
2023-05-09T19:07:19.839Z,18.00
2023-05-09T19:09:47.606Z,17.56
2023-05-09T19:12:17.600Z,17.28
2023-05-09T19:14:45.065Z,17.27
2023-05-09T19:17:12.522Z,17.31
2023-05-09T19:19:40.232Z,17.38
2023-05-09T19:22:07.748Z,17.49
2023-05-09T19:24:35.245Z,17.46
2023-05-09T19:27:02.735Z,17.36
2023-05-09T19:29:31.561Z,17.21
2023-05-09T19:31:59.190Z,17.01
2023-05-09T19:34:27.070Z,16.87
2023-05-09T19:36:54.587Z,16.79
2023-05-09T19:39:22.071Z,16.68
2023-05-09T19:41:49.574Z,16.60
2023-05-09T19:44:17.121Z,16.60
2023-05-09T19:46:45.999Z,16.38
2023-05-09T19:49:17.147Z,16.35
2023-05-09T19:51:45.609Z,16.26
2023-05-09T19:54:14.070Z,15.94
2023-05-09T19:56:41.749Z,16.18
2023-05-09T19:59:09.213Z,16.21
2023-05-09T20:01:36.719Z,16.14
2023-05-09T20:04:06.185Z,16.21
2023-05-09T20:06:33.755Z,16.07
2023-05-09T20:09:01.238Z,16.01
2023-05-09T20:11:28.720Z,16.07
2023-05-09T20:13:56.215Z,16.06
2023-05-09T20:16:23.775Z,15.90
2023-05-09T20:18:52.226Z,15.75
2023-05-09T20:21:21.040Z,15.80
2023-05-09T20:23:48.500Z,15.67
2023-05-09T20:26:16.003Z,15.48
2023-05-09T20:28:43.468Z,15.76
2023-05-09T20:31:11.169Z,15.84
2023-05-09T20:33:39.950Z,15.88
2023-05-09T20:36:09.380Z,15.95
2023-05-09T20:38:38.253Z,15.64
2023-05-09T20:41:05.707Z,15.62
2023-05-09T20:43:33.207Z,15.59
2023-05-09T20:46:00.907Z,15.76
2023-05-09T20:48:28.430Z,15.92
2023-05-09T20:50:55.917Z,15.62
2023-05-09T20:53:26.359Z,15.75
2023-05-09T20:55:55.243Z,15.24
2023-05-09T20:58:22.765Z,15.64
2023-05-09T21:00:50.367Z,15.63
2023-05-09T21:03:18.167Z,15.77
2023-05-09T21:05:45.666Z,15.88
2023-05-09T21:08:13.121Z,16.06
2023-05-09T21:10:41.145Z,15.88
2023-05-09T21:13:10.109Z,16.09
2023-05-09T21:15:37.712Z,16.09
2023-05-09T21:18:05.866Z,16.38
2023-05-09T21:20:33.360Z,16.32
2023-05-09T21:23:00.806Z,16.24
2023-05-09T21:25:28.274Z,16.56
2023-05-09T21:27:56.271Z,16.49
2023-05-09T21:30:25.262Z,16.68
2023-05-09T21:32:52.783Z,16.63
2023-05-09T21:35:20.566Z,16.69
2023-05-09T21:37:50.336Z,16.88
2023-05-09T21:40:18.028Z,16.92
2023-05-09T21:42:45.636Z,16.89
2023-05-09T21:45:13.113Z,16.88
2023-05-09T21:47:42.028Z,16.99
2023-05-09T21:50:10.515Z,16.88
2023-05-09T21:52:38.004Z,16.99
2023-05-09T21:55:06.086Z,16.82
2023-05-09T21:57:33.569Z,17.00
2023-05-09T22:00:01.921Z,16.98
2023-05-09T22:02:29.590Z,16.97
2023-05-09T22:04:58.440Z,17.08
2023-05-09T22:07:26.101Z,17.00
2023-05-09T22:09:54.057Z,16.94
2023-05-09T22:12:21.545Z,16.82
2023-05-09T22:14:56.295Z,16.61
2023-05-09T22:17:24.169Z,16.49
2023-05-09T22:19:51.932Z,16.74
2023-05-09T22:22:21.233Z,16.83
2023-05-09T22:24:49.697Z,16.72
2023-05-09T22:27:17.266Z,16.39
2023-05-09T22:29:45.577Z,16.45
2023-05-09T22:32:13.073Z,16.60
2023-05-09T22:34:40.752Z,15.90
2023-05-09T22:37:08.257Z,15.85
2023-05-09T22:39:37.025Z,15.59
2023-05-09T22:42:04.808Z,15.50
2023-05-09T22:44:33.208Z,15.48
2023-05-09T22:47:00.675Z,15.53
2023-05-09T22:49:28.164Z,15.70
2023-05-09T22:51:55.619Z,15.89
2023-05-09T22:54:23.214Z,15.96
2023-05-09T22:56:52.127Z,16.12
2023-05-09T22:59:20.292Z,16.35
2023-05-09T23:01:47.727Z,16.83
2023-05-09T23:04:15.317Z,16.85
2023-05-09T23:06:42.791Z,16.83
2023-05-09T23:09:10.505Z,16.53
2023-05-09T23:11:38.229Z,16.17
2023-05-09T23:14:07.346Z,16.19
2023-05-09T23:16:34.841Z,16.13
2023-05-09T23:19:02.607Z,16.03
2023-05-09T23:21:30.126Z,16.00
2023-05-09T23:23:57.563Z,16.01
2023-05-09T23:26:25.094Z,16.14
2023-05-09T23:28:55.047Z,15.94
2023-05-09T23:31:23.921Z,16.11
2023-05-09T23:33:51.431Z,16.24
2023-05-09T23:36:18.910Z,16.27
2023-05-09T23:38:46.419Z,16.29
2023-05-09T23:41:14.218Z,16.35
2023-05-09T23:43:41.903Z,16.49
2023-05-09T23:46:09.423Z,16.53
2023-05-09T23:48:38.276Z,16.76
2023-05-09T23:51:05.917Z,16.79
2023-05-09T23:53:34.947Z,16.83
2023-05-09T23:56:02.788Z,16.94
2023-05-09T23:58:30.318Z,17.12
